createdAt,value
2023-01-04T00:01:19.571Z,28.00
2023-01-04T00:03:47.037Z,24.63
2023-01-04T00:06:16.515Z,25.20
2023-01-04T00:08:43.589Z,25.17
2023-01-04T00:11:17.777Z,24.63
2023-01-04T00:13:46.016Z,25.92
2023-01-04T00:16:25.859Z,25.30
2023-01-04T00:18:54.511Z,24.10
2023-01-04T00:21:27.929Z,23.77
2023-01-04T00:23:57.144Z,24.05
2023-01-04T00:26:27.221Z,24.55
2023-01-04T00:28:59.388Z,26.15
2023-01-04T00:31:27.389Z,27.17
2023-01-04T00:33:57.036Z,24.48
2023-01-04T00:36:25.159Z,23.88
2023-01-04T00:39:07.925Z,25.58
2023-01-04T00:44:27.465Z,24.58
2023-01-04T00:46:54.557Z,26.63
2023-01-04T00:49:21.682Z,25.75
2023-01-04T00:51:48.696Z,25.80
2023-01-04T00:54:16.892Z,23.05
2023-01-04T00:56:44.941Z,27.17
2023-01-04T00:59:17.510Z,23.95
2023-01-04T01:01:45.262Z,22.95
2023-01-04T01:04:14.217Z,19.83
2023-01-04T01:06:41.862Z,18.85
2023-01-04T01:09:09.335Z,18.13
2023-01-04T01:11:37.895Z,18.00
2023-01-04T01:14:05.250Z,18.65
2023-01-04T01:16:53.921Z,17.63
2023-01-04T01:19:19.252Z,17.48
2023-01-04T01:21:46.252Z,18.98
2023-01-04T01:24:18.660Z,17.30
2023-01-04T01:26:46.030Z,18.17
2023-01-04T01:29:12.977Z,15.88
2023-01-04T01:31:41.820Z,16.20
2023-01-04T01:34:09.488Z,16.45
2023-01-04T01:36:37.244Z,16.35
2023-01-04T01:39:05.225Z,16.40
2023-01-04T01:41:34.550Z,15.68
2023-01-04T01:44:05.307Z,16.63
2023-01-04T01:46:43.318Z,14.52
2023-01-04T01:49:31.436Z,15.20
2023-01-04T01:52:03.989Z,15.05
2023-01-04T01:54:35.369Z,14.68
2023-01-04T01:57:06.052Z,13.93
2023-01-04T01:59:35.813Z,13.52
2023-01-04T02:02:03.626Z,14.27
2023-01-04T02:04:31.378Z,15.35
2023-01-04T02:06:59.752Z,14.70
2023-01-04T02:09:26.736Z,14.02
2023-01-04T02:11:54.043Z,14.52
2023-01-04T02:14:27.285Z,14.13
2023-01-04T02:17:18.949Z,14.75
2023-01-04T02:20:11.616Z,13.80
2023-01-04T02:23:11.150Z,13.75
2023-01-04T02:25:43.629Z,14.25
2023-01-04T02:28:20.975Z,12.68
2023-01-04T02:31:12.628Z,12.38
2023-01-04T02:33:42.968Z,11.75
2023-01-04T02:36:39.953Z,12.90
2023-01-04T02:39:33.927Z,12.32
2023-01-04T02:42:03.845Z,12.52
2023-01-04T02:44:53.972Z,12.50
2023-01-04T02:47:55.624Z,12.30
2023-01-04T02:50:35.985Z,11.05
2023-01-04T02:53:06.285Z,11.07
2023-01-04T02:55:48.568Z,10.63
2023-01-04T02:58:24.481Z,11.35
2023-01-04T03:01:24.399Z,9.05
2023-01-04T03:04:34.700Z,9.90
2023-01-04T03:07:07.356Z,10.18
2023-01-04T03:09:37.432Z,9.77
2023-01-04T03:12:32.689Z,10.25
2023-01-04T03:15:08.794Z,9.48
2023-01-04T03:17:48.445Z,10.07
2023-01-04T03:20:18.451Z,10.50
2023-01-04T03:23:09.982Z,9.80
2023-01-04T03:26:02.629Z,9.60
2023-01-04T03:28:54.092Z,9.05
2023-01-04T03:31:51.822Z,8.57
2023-01-04T03:34:37.693Z,9.02
2023-01-04T03:37:13.250Z,8.98
2023-01-04T03:40:37.900Z,9.52
2023-01-04T03:43:40.598Z,6.78
2023-01-04T03:46:50.933Z,8.77
2023-01-04T03:49:24.086Z,9.65
2023-01-04T03:51:55.702Z,8.73
2023-01-04T03:54:29.210Z,9.30
2023-01-04T03:56:57.221Z,8.80
2023-01-04T03:59:24.534Z,9.85
2023-01-04T04:01:52.840Z,8.40
2023-01-04T04:04:38.443Z,8.90
2023-01-04T04:07:24.425Z,9.27
2023-01-04T04:09:51.403Z,8.05
2023-01-04T04:12:18.362Z,9.02
2023-01-04T04:14:45.336Z,9.90
2023-01-04T04:17:12.332Z,10.07
2023-01-04T04:19:39.319Z,9.52
2023-01-04T04:22:06.316Z,9.88
2023-01-04T04:24:33.405Z,10.63
2023-01-04T04:27:00.402Z,10.77
2023-01-04T04:29:27.348Z,11.75
2023-01-04T04:31:54.477Z,12.20
2023-01-04T04:34:21.913Z,12.27
2023-01-04T04:36:48.889Z,11.65
2023-01-04T04:39:15.996Z,10.18
2023-01-04T04:41:42.974Z,10.20
2023-01-04T04:44:17.882Z,9.55
2023-01-04T04:46:45.754Z,9.93
2023-01-04T04:49:14.112Z,10.82
2023-01-04T04:51:42.191Z,10.02
2023-01-04T04:54:11.611Z,9.63
2023-01-04T04:56:38.957Z,8.80
2023-01-04T04:59:06.378Z,8.23
2023-01-04T05:01:33.911Z,7.97
2023-01-04T05:04:01.137Z,7.53
2023-01-04T05:06:29.357Z,9.23
2023-01-04T05:08:56.458Z,8.18
2023-01-04T05:11:42.459Z,7.57
2023-01-04T05:14:10.121Z,7.88
2023-01-04T05:16:37.202Z,7.38
2023-01-04T05:19:04.390Z,7.07
2023-01-04T05:21:31.440Z,8.85
2023-01-04T05:23:58.391Z,7.53
2023-01-04T05:26:25.840Z,8.02
2023-01-04T05:28:54.195Z,6.90
2023-01-04T05:31:22.121Z,7.15
2023-01-04T05:33:49.162Z,7.50
2023-01-04T05:36:16.370Z,7.47
2023-01-04T05:38:43.394Z,8.23
2023-01-04T05:41:29.010Z,8.18
2023-01-04T05:43:56.174Z,8.75
2023-01-04T05:46:23.606Z,8.60
2023-01-04T05:48:50.779Z,9.23
2023-01-04T05:51:17.782Z,8.63
2023-01-04T05:53:44.711Z,9.13
2023-01-04T05:56:11.638Z,9.20
2023-01-04T05:58:38.981Z,9.80
2023-01-04T06:01:07.817Z,9.43
2023-01-04T06:03:35.337Z,8.57
2023-01-04T06:06:02.489Z,9.13
2023-01-04T06:08:29.482Z,9.82
2023-01-04T06:10:56.689Z,9.27
2023-01-04T06:13:23.729Z,9.73
2023-01-04T06:15:50.707Z,10.85
2023-01-04T06:18:18.363Z,9.88
2023-01-04T06:20:45.814Z,11.32
2023-01-04T06:23:13.396Z,10.88
2023-01-04T06:25:40.384Z,10.57
2023-01-04T06:28:07.817Z,9.88
2023-01-04T06:30:35.309Z,9.88
2023-01-04T06:33:02.673Z,9.38
2023-01-04T06:35:30.021Z,10.18
2023-01-04T06:37:56.994Z,9.90
2023-01-04T06:40:23.998Z,10.18
2023-01-04T06:42:51.115Z,10.00
2023-01-04T06:45:18.138Z,10.18
2023-01-04T06:47:45.542Z,10.65
2023-01-04T06:50:12.606Z,11.25
2023-01-04T06:52:39.712Z,10.68
2023-01-04T06:55:09.847Z,10.13
2023-01-04T06:57:37.465Z,9.93
2023-01-04T07:00:06.352Z,11.07
2023-01-04T07:02:33.354Z,11.48
2023-01-04T07:05:00.793Z,11.27
2023-01-04T07:07:27.973Z,10.55
2023-01-04T07:09:54.987Z,10.73
2023-01-04T07:12:21.882Z,10.68
2023-01-04T07:14:48.806Z,12.30
2023-01-04T07:17:15.845Z,11.07
2023-01-04T07:19:42.746Z,10.80
2023-01-04T07:22:09.688Z,11.38
2023-01-04T07:24:36.695Z,9.23
2023-01-04T07:27:03.977Z,8.70
2023-01-04T07:29:30.925Z,8.55
2023-01-04T07:31:58.105Z,8.98
2023-01-04T07:34:26.198Z,9.10
2023-01-04T07:36:53.467Z,9.57
2023-01-04T07:39:20.573Z,10.60
2023-01-04T07:41:48.345Z,10.23
2023-01-04T07:44:18.476Z,10.10
2023-01-04T07:46:45.699Z,9.73
2023-01-04T07:49:18.478Z,10.30
2023-01-04T07:51:47.322Z,9.85
2023-01-04T07:54:18.521Z,9.65
2023-01-04T07:56:47.773Z,8.50
2023-01-04T07:59:16.340Z,8.90
2023-01-04T08:01:43.730Z,9.32
2023-01-04T08:04:13.128Z,8.20
2023-01-04T08:06:40.877Z,7.95
2023-01-04T08:09:08.519Z,6.88
2023-01-04T08:11:35.459Z,7.35
2023-01-04T08:14:02.966Z,7.50
2023-01-04T08:16:35.630Z,7.80
2023-01-04T08:19:09.082Z,7.15
2023-01-04T08:21:36.953Z,7.53
2023-01-04T08:24:05.076Z,7.78
2023-01-04T08:26:32.948Z,7.10
2023-01-04T08:29:00.113Z,8.23
2023-01-04T08:31:30.245Z,7.15
2023-01-04T08:33:58.135Z,8.40
2023-01-04T08:36:28.243Z,9.05
2023-01-04T08:39:00.544Z,8.45
2023-01-04T08:44:19.835Z,11.88
2023-01-04T08:46:47.266Z,11.93
2023-01-04T08:49:14.739Z,13.05
2023-01-04T08:51:42.570Z,12.93
2023-01-04T08:54:09.996Z,11.77
2023-01-04T08:56:37.388Z,12.38
2023-01-04T08:59:05.129Z,11.93
2023-01-04T09:01:33.456Z,11.75
2023-01-04T09:04:00.870Z,11.85
2023-01-04T09:06:28.835Z,10.35
2023-01-04T09:08:57.370Z,11.90
2023-01-04T09:11:25.107Z,12.38
2023-01-04T09:14:02.638Z,12.80
2023-01-04T09:16:34.589Z,10.77
2023-01-04T09:19:01.702Z,11.77
2023-01-04T09:21:28.883Z,11.82
2023-01-04T09:23:58.593Z,11.02
2023-01-04T09:26:25.597Z,11.10
2023-01-04T09:28:55.144Z,11.95
2023-01-04T09:31:24.868Z,11.30
2023-01-04T09:36:39.802Z,10.95
2023-01-04T09:39:06.879Z,11.95
2023-01-04T09:41:43.350Z,12.20
2023-01-04T09:44:10.217Z,12.95
2023-01-04T09:46:47.023Z,12.90
2023-01-04T09:49:24.899Z,11.55
2023-01-04T09:52:12.046Z,12.02
2023-01-04T09:54:57.597Z,10.90
2023-01-04T09:57:35.474Z,10.90
2023-01-04T10:00:11.037Z,12.77
2023-01-04T10:02:47.213Z,11.88
2023-01-04T10:05:25.053Z,12.80
2023-01-04T10:07:52.235Z,13.93
2023-01-04T10:10:42.600Z,12.70
2023-01-04T10:13:16.849Z,14.10
2023-01-04T10:15:49.734Z,13.85
2023-01-04T10:21:40.509Z,13.98
2023-01-04T10:24:25.374Z,16.08
2023-01-04T10:26:59.898Z,15.70
2023-01-04T10:29:45.259Z,16.00
2023-01-04T10:32:12.353Z,16.33
2023-01-04T10:34:45.099Z,17.52
2023-01-04T10:37:17.849Z,17.43
2023-01-04T10:39:45.959Z,16.53
2023-01-04T10:42:17.827Z,16.83
2023-01-04T10:45:04.820Z,17.05
2023-01-04T10:47:47.423Z,17.35
2023-01-04T10:50:17.461Z,17.95
2023-01-04T10:53:05.158Z,18.08
2023-01-04T10:56:23.877Z,18.08
2023-01-04T10:58:56.290Z,17.70
2023-01-04T11:01:40.734Z,18.58
2023-01-04T11:04:26.382Z,17.77
2023-01-04T11:06:55.909Z,19.42
2023-01-04T11:09:27.892Z,19.17
2023-01-04T11:11:58.080Z,19.65
2023-01-04T11:14:25.905Z,20.02
2023-01-04T11:16:58.124Z,20.83
2023-01-04T11:19:25.305Z,20.55
2023-01-04T11:22:01.107Z,21.67
2023-01-04T11:24:33.260Z,22.40
2023-01-04T11:27:06.110Z,22.63
2023-01-04T11:29:48.286Z,22.98
2023-01-04T11:32:31.568Z,22.00
2023-01-04T11:34:58.553Z,21.42
2023-01-04T11:37:29.619Z,22.92
2023-01-04T11:40:18.193Z,22.80
2023-01-04T11:42:47.140Z,26.30
2023-01-04T11:45:19.099Z,21.48
2023-01-04T11:47:51.392Z,23.80
2023-01-04T11:50:38.560Z,22.98
2023-01-04T11:53:30.295Z,29.55
2023-01-04T11:56:22.138Z,27.08
2023-01-04T11:59:24.927Z,27.85
2023-01-04T12:02:11.205Z,23.15
2023-01-04T12:04:38.411Z,27.50
2023-01-04T12:07:31.959Z,22.85
2023-01-04T12:10:00.345Z,23.65
2023-01-04T12:12:33.980Z,23.35
2023-01-04T12:17:45.357Z,24.83
2023-01-04T12:20:19.663Z,21.63
2023-01-04T12:22:47.158Z,17.35
2023-01-04T12:25:45.352Z,17.23
2023-01-04T12:28:35.268Z,19.52
2023-01-04T12:31:21.106Z,19.48
2023-01-04T12:34:25.997Z,15.77
2023-01-04T12:36:55.689Z,15.13
2023-01-04T12:39:28.802Z,16.52
2023-01-04T12:42:01.695Z,13.65
2023-01-04T12:44:40.271Z,12.82
2023-01-04T12:47:34.780Z,12.23
2023-01-04T12:50:11.609Z,13.02
2023-01-04T12:53:10.645Z,13.60
2023-01-04T12:58:00.989Z,10.82
2023-01-04T13:00:52.787Z,10.93
2023-01-04T13:03:22.089Z,11.27
2023-01-04T13:06:00.811Z,10.98
2023-01-04T13:08:33.233Z,12.05
2023-01-04T13:11:02.658Z,12.80
2023-01-04T13:13:57.230Z,13.13
2023-01-04T13:16:49.718Z,14.27
2023-01-04T13:19:23.625Z,12.27
2023-01-04T13:21:52.827Z,12.40
2023-01-04T13:24:34.179Z,13.18
2023-01-04T13:27:17.514Z,12.55
2023-01-04T13:29:45.268Z,13.27
2023-01-04T13:32:46.959Z,12.57
2023-01-04T13:35:21.101Z,14.02
2023-01-04T13:37:50.705Z,15.02
2023-01-04T13:40:20.646Z,14.45
2023-01-04T13:43:25.909Z,15.10
2023-01-04T13:46:14.876Z,18.98
2023-01-04T13:48:45.133Z,19.73
2023-01-04T13:51:25.460Z,18.67
2023-01-04T13:54:01.882Z,14.82
2023-01-04T13:56:31.918Z,16.08
2023-01-04T13:58:59.782Z,14.77
2023-01-04T14:01:44.710Z,12.95
2023-01-04T14:04:24.378Z,13.93
2023-01-04T14:06:54.605Z,13.50
2023-01-04T14:09:25.320Z,13.50
2023-01-04T14:12:05.630Z,14.35
2023-01-04T14:14:48.579Z,14.20
2023-01-04T14:17:26.293Z,14.05
2023-01-04T14:20:20.163Z,15.52
2023-01-04T14:22:47.139Z,16.30
2023-01-04T14:25:56.129Z,16.17
2023-01-04T14:28:24.797Z,17.73
2023-01-04T14:31:19.616Z,17.30
2023-01-04T14:33:49.920Z,17.45
2023-01-04T14:36:32.439Z,17.42
2023-01-04T14:39:08.358Z,18.60
2023-01-04T14:42:05.173Z,17.92
2023-01-04T14:44:35.857Z,18.25
2023-01-04T14:47:06.326Z,18.42
2023-01-04T14:49:33.511Z,18.23
2023-01-04T14:52:03.014Z,18.50
2023-01-04T14:54:31.578Z,19.58
2023-01-04T14:56:59.464Z,18.67
2023-01-04T14:59:26.877Z,18.13
2023-01-04T15:01:55.912Z,19.05
2023-01-04T15:04:27.402Z,18.92
2023-01-04T15:07:00.087Z,20.27
2023-01-04T15:09:28.021Z,19.17
2023-01-04T15:11:55.346Z,22.45
2023-01-04T15:14:22.802Z,22.50
2023-01-04T15:16:49.782Z,22.13
2023-01-04T15:19:16.761Z,21.05
2023-01-04T15:21:43.656Z,19.02
2023-01-04T15:24:10.772Z,19.70
2023-01-04T15:26:39.748Z,21.00
2023-01-04T15:29:08.392Z,21.98
2023-01-04T15:31:39.667Z,21.90
2023-01-04T15:34:11.311Z,19.80
2023-01-04T15:36:40.981Z,22.95
2023-01-04T15:39:11.358Z,25.92
2023-01-04T15:41:57.008Z,25.52
2023-01-04T15:44:24.874Z,26.10
2023-01-04T15:46:53.059Z,23.85
2023-01-04T15:49:20.181Z,23.17
2023-01-04T15:51:47.383Z,23.48
2023-01-04T15:54:14.469Z,22.52
2023-01-04T15:56:41.356Z,22.83
2023-01-04T15:59:08.303Z,21.35
2023-01-04T16:01:35.319Z,22.17
2023-01-04T16:04:03.157Z,24.83
2023-01-04T16:06:30.099Z,22.27
2023-01-04T16:08:58.887Z,22.02
2023-01-04T16:11:26.301Z,22.23
2023-01-04T16:13:53.561Z,22.00
2023-01-04T16:16:22.787Z,21.77
2023-01-04T16:18:51.994Z,21.95
2023-01-04T16:21:25.389Z,20.90
2023-01-04T16:24:05.124Z,22.17
2023-01-04T16:26:37.826Z,21.58
2023-01-04T16:29:04.956Z,23.17
2023-01-04T16:31:37.029Z,22.17
2023-01-04T16:34:05.472Z,21.75
2023-01-04T16:36:32.661Z,23.65
2023-01-04T16:39:01.351Z,21.95
2023-01-04T16:41:28.277Z,21.92
2023-01-04T16:43:58.839Z,20.70
2023-01-04T16:46:31.220Z,22.63
2023-01-04T16:49:13.333Z,22.77
2023-01-04T16:51:42.139Z,22.70
2023-01-04T16:54:11.981Z,24.25
2023-01-04T16:56:39.571Z,22.70
2023-01-04T16:59:07.097Z,23.00
2023-01-04T17:01:38.331Z,21.95
2023-01-04T17:04:10.512Z,22.40
2023-01-04T17:06:40.820Z,22.48
2023-01-04T17:09:14.359Z,23.80
2023-01-04T17:14:30.385Z,23.05
2023-01-04T17:16:57.758Z,24.85
2023-01-04T17:19:24.759Z,24.85
2023-01-04T17:21:52.066Z,22.90
2023-01-04T17:24:19.672Z,24.25
2023-01-04T17:26:46.996Z,25.73
2023-01-04T17:29:15.150Z,23.08
2023-01-04T17:31:44.339Z,26.23
2023-01-04T17:34:22.477Z,25.67
2023-01-04T17:36:50.151Z,25.30
2023-01-04T17:39:17.145Z,26.52
2023-01-04T17:41:44.083Z,30.85
2023-01-04T17:44:11.165Z,30.40
2023-01-04T17:46:39.026Z,29.15
2023-01-04T17:49:30.830Z,27.83
2023-01-04T17:51:57.234Z,26.98
2023-01-04T17:54:25.725Z,29.08
2023-01-04T17:56:52.847Z,27.70
2023-01-04T17:59:19.942Z,27.35
2023-01-04T18:01:47.160Z,25.02
2023-01-04T18:04:14.221Z,25.40
2023-01-04T18:06:41.446Z,27.40
2023-01-04T18:09:10.793Z,26.25
2023-01-04T18:11:37.802Z,26.83
2023-01-04T18:14:09.591Z,25.20
2023-01-04T18:16:56.454Z,23.33
2023-01-04T18:19:25.312Z,25.13
2023-01-04T18:21:52.925Z,26.48
2023-01-04T18:24:37.099Z,29.80
2023-01-04T18:27:23.301Z,31.02
2023-01-04T18:29:52.126Z,24.70
2023-01-04T18:32:19.212Z,26.23
2023-01-04T18:34:46.127Z,27.02
2023-01-04T18:37:13.777Z,23.80
2023-01-04T18:39:40.764Z,24.30
2023-01-04T18:42:07.760Z,26.65
2023-01-04T18:44:35.816Z,25.90
2023-01-04T18:47:03.572Z,27.02
2023-01-04T18:49:30.740Z,26.52
2023-01-04T18:51:57.732Z,26.42
2023-01-04T18:54:25.029Z,25.88
2023-01-04T18:56:58.637Z,28.25
2023-01-04T18:59:29.541Z,29.73
2023-01-04T19:02:03.774Z,29.38
2023-01-04T19:04:33.156Z,26.88
2023-01-04T19:07:00.886Z,27.05
2023-01-04T19:09:27.971Z,27.15
2023-01-04T19:11:54.891Z,27.58
2023-01-04T19:14:21.916Z,27.50
2023-01-04T19:16:48.938Z,27.25
2023-01-04T19:19:15.989Z,29.20
2023-01-04T19:21:42.883Z,28.52
2023-01-04T19:24:09.930Z,28.42
2023-01-04T19:26:36.925Z,29.48
2023-01-04T19:29:05.256Z,28.17
2023-01-04T19:31:32.257Z,27.40
2023-01-04T19:33:59.182Z,25.73
2023-01-04T19:36:26.161Z,26.15
2023-01-04T19:38:55.370Z,27.15
2023-01-04T19:41:33.554Z,25.50
2023-01-04T19:44:05.231Z,28.02
2023-01-04T19:46:32.248Z,29.15
2023-01-04T19:48:59.846Z,27.23
2023-01-04T19:51:28.087Z,25.85
2023-01-04T19:53:55.578Z,29.65
2023-01-04T19:56:22.651Z,28.35
2023-01-04T19:58:49.782Z,28.25
2023-01-04T20:01:19.262Z,25.63
2023-01-04T20:03:46.783Z,22.40
2023-01-04T20:06:15.099Z,24.88
2023-01-04T20:08:42.616Z,24.52
2023-01-04T20:11:10.479Z,27.38
2023-01-04T20:13:38.808Z,24.77
2023-01-04T20:16:06.397Z,21.98
2023-01-04T20:18:34.398Z,21.98
2023-01-04T20:21:01.526Z,20.65
2023-01-04T20:23:29.115Z,21.50
2023-01-04T20:25:56.261Z,19.92
2023-01-04T20:28:24.990Z,21.13
2023-01-04T20:31:07.075Z,20.02
2023-01-04T20:33:34.377Z,20.70
2023-01-04T20:36:11.159Z,19.42
2023-01-04T20:38:40.162Z,19.42
2023-01-04T20:41:08.179Z,20.98
2023-01-04T20:43:36.292Z,20.40
2023-01-04T20:46:13.366Z,21.13
2023-01-04T20:48:41.559Z,20.15
2023-01-04T20:51:11.228Z,19.20
2023-01-04T20:53:38.696Z,19.65
2023-01-04T20:56:14.773Z,19.88
2023-01-04T20:58:43.412Z,19.52
2023-01-04T21:01:10.483Z,19.27
2023-01-04T21:03:38.295Z,20.23
2023-01-04T21:06:08.628Z,18.85
2023-01-04T21:08:37.285Z,19.75
2023-01-04T21:11:04.521Z,21.20
2023-01-04T21:13:31.936Z,22.48
2023-01-04T21:15:59.233Z,19.67
2023-01-04T21:18:26.799Z,19.92
2023-01-04T21:20:54.403Z,20.58
2023-01-04T21:23:25.327Z,19.90
2023-01-04T21:25:52.831Z,19.17
2023-01-04T21:28:21.759Z,19.77
2023-01-04T21:30:49.581Z,20.10
2023-01-04T21:33:17.229Z,21.58
2023-01-04T21:35:44.286Z,22.27
2023-01-04T21:38:11.701Z,21.30
2023-01-04T21:40:40.696Z,19.65
2023-01-04T21:43:08.839Z,17.95
2023-01-04T21:45:39.827Z,18.50
2023-01-04T21:48:06.919Z,17.92
2023-01-04T21:50:34.210Z,18.13
2023-01-04T21:53:01.178Z,18.17
2023-01-04T21:55:33.873Z,17.27
2023-01-04T21:58:01.590Z,16.30
2023-01-04T22:00:28.526Z,17.38
2023-01-04T22:02:55.537Z,20.25
2023-01-04T22:05:22.894Z,19.23
2023-01-04T22:07:49.811Z,17.95
2023-01-04T22:10:16.835Z,19.23
2023-01-04T22:12:45.002Z,18.02
2023-01-04T22:15:12.000Z,17.60
2023-01-04T22:17:39.059Z,17.60
2023-01-04T22:20:06.578Z,16.88
2023-01-04T22:22:33.506Z,16.30
2023-01-04T22:25:00.377Z,18.48
2023-01-04T22:27:27.280Z,18.50
2023-01-04T22:29:56.204Z,18.23
2023-01-04T22:32:23.184Z,15.35
2023-01-04T22:34:50.341Z,16.67
2023-01-04T22:37:17.576Z,18.08
2023-01-04T22:39:44.492Z,16.67
2023-01-04T22:42:11.443Z,18.75
2023-01-04T22:44:38.355Z,18.05
2023-01-04T22:47:05.426Z,17.85
2023-01-04T22:49:33.146Z,18.75
2023-01-04T22:52:00.112Z,17.02
2023-01-04T22:54:27.094Z,18.13
2023-01-04T22:56:54.071Z,19.58
2023-01-04T22:59:21.251Z,22.95
2023-01-04T23:01:48.250Z,19.90
2023-01-04T23:04:16.793Z,20.80
2023-01-04T23:06:44.581Z,17.65
2023-01-04T23:09:15.130Z,17.55
2023-01-04T23:11:43.033Z,18.08
2023-01-04T23:14:14.402Z,18.05
2023-01-04T23:16:41.408Z,17.70
2023-01-04T23:19:08.434Z,18.23
2023-01-04T23:21:36.081Z,20.42
2023-01-04T23:24:03.208Z,22.13
2023-01-04T23:26:31.415Z,22.70
2023-01-04T23:28:59.409Z,22.13
2023-01-04T23:31:28.433Z,20.73
2023-01-04T23:33:58.281Z,18.33
2023-01-04T23:36:38.212Z,20.27
2023-01-04T23:39:12.521Z,19.58
2023-01-04T23:41:45.616Z,18.27
2023-01-04T23:44:27.537Z,16.80
2023-01-04T23:46:56.870Z,16.48
2023-01-04T23:49:25.112Z,15.30
2023-01-04T23:51:52.807Z,15.60
2023-01-04T23:54:20.349Z,17.00
2023-01-04T23:56:47.358Z,15.85
2023-01-04T23:59:14.325Z,15.82
